Time;durP1;ratioP1;P1;durP2;ratioP2;P2;SDS_P1;SDS_P2;PMS_P1;PMS_P2;Temp;Humidity;BMP_temperature;BMP_pressure;BME280_temperature;BME280_humidity;BME280_pressure;Samples;Min_cycle;Max_cycle;Signal;HPM_P1;HPM_P2
2023/08/07 00:00:35;;;;;;;1.23;0.80;;;;;;;19.76;79.27;100175.25;5013438;28;20046;-66
2023/08/07 00:03:03;;;;;;;2.05;0.60;;;;;;;19.74;79.33;100165.31;5013376;28;20050;-66
2023/08/07 00:05:31;;;;;;;0.60;0.60;;;;;;;19.65;80.79;100167.44;5013345;28;20046;-66
2023/08/07 00:07:59;;;;;;;0.80;0.63;;;;;;;19.59;81.11;100168.84;5013293;28;20073;-67
2023/08/07 00:10:27;;;;;;;0.70;0.70;;;;;;;19.62;80.50;100173.69;5012501;28;20065;-66
2023/08/07 00:12:54;;;;;;;0.73;0.70;;;;;;;19.59;80.61;100171.59;5011980;28;20060;-66
2023/08/07 00:15:24;;;;;;;0.65;0.60;;;;;;;19.47;81.74;100178.81;5013503;28;20073;-66
2023/08/07 00:17:52;;;;;;;1.63;1.10;;;;;;;19.43;82.04;100182.66;5013107;28;20520;-66
2023/08/07 00:20:20;;;;;;;1.50;0.60;;;;;;;19.30;82.33;100174.34;5013252;28;20053;-66
2023/08/07 00:22:48;;;;;;;2.45;0.75;;;;;;;19.32;82.87;100190.66;5012633;28;20060;-66
2023/08/07 00:25:16;;;;;;;1.10;0.90;;;;;;;19.29;83.08;100199.66;5012694;28;20413;-66
2023/08/07 00:27:44;;;;;;;1.67;1.05;;;;;;;19.29;83.11;100206.03;5011874;28;20042;-66
2023/08/07 00:30:12;;;;;;;2.83;1.08;;;;;;;19.30;83.40;100204.03;5012601;28;20053;-66
2023/08/07 00:32:40;;;;;;;0.98;0.70;;;;;;;19.30;84.50;100204.03;5012834;28;20046;-66
2023/08/07 00:35:08;;;;;;;2.03;0.80;;;;;;;19.29;83.81;100199.66;5012195;28;20405;-66
2023/08/07 00:37:36;;;;;;;1.40;0.63;;;;;;;19.29;83.33;100197.69;5012760;28;20064;-66
2023/08/07 00:40:05;;;;;;;1.23;0.80;;;;;;;19.28;83.87;100198.88;5011228;28;20053;-66
2023/08/07 00:42:33;;;;;;;3.15;0.98;;;;;;;19.37;85.95;100195.97;5012346;28;20049;-66
2023/08/07 00:45:01;;;;;;;1.52;1.02;;;;;;;19.43;83.20;100193.75;4993914;28;20050;-66
2023/08/07 00:47:29;;;;;;;0.75;0.75;;;;;;;19.42;82.55;100208.78;4995136;28;20072;-65
2023/08/07 00:49:59;;;;;;;1.00;0.77;;;;;;;19.44;82.54;100198.94;4994788;28;20053;-66
2023/08/07 00:52:27;;;;;;;1.45;0.90;;;;;;;19.48;83.27;100196.28;4995111;28;20056;-66
2023/08/07 00:54:55;;;;;;;1.45;0.55;;;;;;;19.37;83.05;100195.16;4995869;28;20482;-66
2023/08/07 00:57:24;;;;;;;0.60;0.57;;;;;;;19.47;83.82;100184.34;4992653;28;20061;-66
2023/08/07 00:59:52;;;;;;;0.63;0.60;;;;;;;19.43;84.16;100193.75;4992393;28;20497;-66
2023/08/07 01:02:20;;;;;;;2.30;0.60;;;;;;;19.41;84.62;100182.19;4974654;28;20057;-66
2023/08/07 01:04:50;;;;;;;1.10;0.70;;;;;;;19.43;84.54;100183.47;4992359;28;20058;-66
2023/08/07 01:07:18;;;;;;;1.15;0.90;;;;;;;19.39;85.18;100176.16;4991593;28;20053;-66
2023/08/07 01:09:46;;;;;;;1.23;0.77;;;;;;;19.38;84.61;100175.38;4992640;28;20050;-66
2023/08/07 01:12:29;;;;;;;2.05;1.25;;;;;;;19.40;85.91;100175.81;4992786;28;20051;-67
2023/08/07 01:15:07;;;;;;;1.08;0.70;;;;;;;19.33;83.39;100182.00;4975484;28;20050;-66
2023/08/07 01:17:36;;;;;;;1.33;0.95;;;;;;;19.31;83.89;100187.06;4992707;28;20050;-66
2023/08/07 01:20:04;;;;;;;0.70;0.70;;;;;;;19.29;85.11;100185.78;4975388;28;20050;-66
2023/08/07 01:22:32;;;;;;;0.80;0.70;;;;;;;19.29;84.21;100189.38;4992136;28;20054;-66
2023/08/07 01:25:00;;;;;;;1.48;0.90;;;;;;;19.25;84.62;100195.97;4992339;28;20389;-66
2023/08/07 01:27:46;;;;;;;0.77;0.75;;;;;;;19.20;85.05;100188.69;4992085;28;20512;-66
2023/08/07 01:30:33;;;;;;;1.05;0.90;;;;;;;19.20;86.00;100191.47;4992556;28;20043;-66
2023/08/07 01:33:29;;;;;;;1.20;0.77;;;;;;;19.15;86.38;100183.38;4992161;28;20046;-65
2023/08/07 01:36:01;;;;;;;1.67;0.60;;;;;;;19.11;86.47;100185.25;4975100;28;20054;-66
2023/08/07 01:38:29;;;;;;;0.75;0.75;;;;;;;19.02;86.31;100183.34;4992114;28;20054;-66
2023/08/07 01:40:58;;;;;;;0.77;0.77;;;;;;;18.99;86.95;100184.06;4992524;28;20050;-66
2023/08/07 01:43:27;;;;;;;0.98;0.85;;;;;;;18.91;86.69;100179.44;4974194;28;20047;-66
2023/08/07 01:45:55;;;;;;;0.85;0.60;;;;;;;18.80;87.35;100182.69;4992305;28;20065;-66
2023/08/07 01:48:23;;;;;;;0.63;0.63;;;;;;;18.74;88.58;100186.84;4975051;28;20054;-66
2023/08/07 01:50:54;;;;;;;1.60;0.82;;;;;;;18.67;89.39;100179.09;4975094;28;20058;-66
2023/08/07 01:53:24;;;;;;;0.68;0.68;;;;;;;18.63;90.28;100180.91;4996391;28;20050;-66
2023/08/07 01:55:51;;;;;;;0.90;0.80;;;;;;;18.70;89.77;100185.91;5009985;28;20401;-66
2023/08/07 01:58:19;;;;;;;1.90;0.95;;;;;;;18.70;89.36;100191.44;5009873;28;20046;-66
2023/08/07 02:00:47;;;;;;;1.23;0.70;;;;;;;18.58;89.02;100195.00;5011616;28;20061;-66
2023/08/07 02:03:15;;;;;;;0.80;0.80;;;;;;;18.55;88.78;100201.25;5010799;28;20042;-66
2023/08/07 02:05:46;;;;;;;2.20;0.80;;;;;;;18.54;89.20;100205.97;5011828;28;20389;-66
2023/08/07 02:08:14;;;;;;;0.77;0.77;;;;;;;18.51;89.67;100212.19;4994309;28;20046;-66
2023/08/07 02:10:42;;;;;;;2.75;0.65;;;;;;;18.52;90.18;100204.69;5026988;28;20060;-66
2023/08/07 02:13:10;;;;;;;2.05;1.23;;;;;;;18.51;90.55;100212.19;5011175;28;20076;-66
2023/08/07 02:15:38;;;;;;;1.58;1.00;;;;;;;18.62;97.87;100214.53;5010160;28;20054;-68
2023/08/07 02:18:06;;;;;;;3.22;0.95;;;;;;;18.60;96.45;100208.50;5011321;28;20054;-67
2023/08/07 02:20:34;;;;;;;2.05;0.82;;;;;;;18.50;93.82;100230.00;5014754;28;20045;-66
2023/08/07 02:23:02;;;;;;;4.57;0.90;;;;;;;18.63;94.96;100218.94;5013565;28;20042;-66
2023/08/07 02:25:30;;;;;;;5.28;1.88;;;;;;;18.56;96.68;100213.94;5015162;28;20057;-66
2023/08/07 02:27:58;;;;;;;1.63;1.00;;;;;;;18.46;96.71;100209.66;4997748;28;20058;-66
2023/08/07 02:30:26;;;;;;;2.72;1.02;;;;;;;18.33;94.57;100205.25;5015149;28;20049;-66
2023/08/07 02:32:54;;;;;;;1.38;1.27;;;;;;;18.33;95.01;100208.00;5012934;28;20057;-66
2023/08/07 02:35:22;;;;;;;2.75;0.98;;;;;;;18.41;95.73;100201.56;5014976;28;20057;-66
2023/08/07 02:37:51;;;;;;;1.35;0.70;;;;;;;18.38;93.01;100214.13;5012922;28;20062;-66
2023/08/07 02:40:19;;;;;;;1.33;0.93;;;;;;;18.35;94.29;100209.28;5013596;28;20050;-66
2023/08/07 02:42:47;;;;;;;2.80;1.20;;;;;;;18.47;94.32;100204.94;5014926;28;20050;-66
2023/08/07 02:45:15;;;;;;;1.83;0.80;;;;;;;18.47;94.19;100205.72;5014741;28;20061;-66
2023/08/07 02:47:43;;;;;;;1.08;0.98;;;;;;;18.49;94.45;100205.38;5013032;28;20058;-67
2023/08/07 02:50:10;;;;;;;2.88;0.93;;;;;;;18.44;92.86;100205.59;5014663;28;20042;-67
2023/08/07 02:52:38;;;;;;;1.17;1.08;;;;;;;18.36;96.09;100210.06;5014233;28;20049;-67
2023/08/07 02:55:07;;;;;;;0.80;0.80;;;;;;;18.33;96.04;100203.25;4995749;28;20387;-67
2023/08/07 02:57:35;;;;;;;0.98;0.95;;;;;;;18.29;94.88;100198.75;4994566;28;20394;-67
2023/08/07 03:00:03;;;;;;;1.08;0.98;;;;;;;18.20;95.30;100196.91;4994471;28;20065;-66
2023/08/07 03:02:31;;;;;;;2.85;1.05;;;;;;;18.19;95.99;100200.00;4993608;28;20054;-66
2023/08/07 03:04:59;;;;;;;3.83;0.82;;;;;;;18.29;95.39;100196.00;4994670;28;20053;-67
2023/08/07 03:07:27;;;;;;;4.50;1.00;;;;;;;18.27;95.86;100186.06;4977350;28;20046;-67
2023/08/07 03:09:55;;;;;;;5.47;1.00;;;;;;;18.04;94.98;100191.13;4994556;28;20051;-67
2023/08/07 03:12:22;;;;;;;1.70;0.75;;;;;;;18.10;94.21;100198.09;4994576;28;20434;-66
2023/08/07 03:14:50;;;;;;;0.70;0.70;;;;;;;18.06;90.84;100199.13;4994412;28;20042;-66
2023/08/07 03:17:20;;;;;;;1.20;0.95;;;;;;;18.06;90.03;100190.84;4976481;28;20055;-67
2023/08/07 03:19:49;;;;;;;2.30;0.80;;;;;;;18.01;91.46;100205.69;4993341;28;20038;-66
2023/08/07 03:22:17;;;;;;;0.45;0.40;;;;;;;17.98;90.61;100201.63;4977070;28;20058;-66
2023/08/07 03:24:48;;;;;;;3.63;0.85;;;;;;;17.68;90.25;100189.81;4993200;28;20398;-66
2023/08/07 03:27:16;;;;;;;1.42;1.05;;;;;;;17.74;91.29;100196.78;4976585;28;20054;-66
2023/08/07 03:29:44;;;;;;;1.88;0.82;;;;;;;17.56;90.92;100201.66;4994560;28;20050;-66
2023/08/07 03:32:13;;;;;;;0.85;0.82;;;;;;;17.80;92.31;100191.84;4976331;28;20513;-66
2023/08/07 03:34:42;;;;;;;3.03;0.88;;;;;;;17.87;93.04;100200.41;4992768;28;20500;-66
2023/08/07 03:37:10;;;;;;;0.82;0.73;;;;;;;17.84;91.42;100206.66;4976705;28;20047;-66
2023/08/07 03:39:38;;;;;;;0.63;0.40;;;;;;;17.70;90.38;100202.19;4976439;28;20058;-66
2023/08/07 03:42:06;;;;;;;1.55;0.60;;;;;;;17.81;89.09;100199.84;4976395;28;20047;-66
2023/08/07 03:44:34;;;;;;;0.70;0.60;;;;;;;17.91;88.32;100215.22;4976161;28;20454;-66
2023/08/07 03:47:03;;;;;;;1.27;0.68;;;;;;;17.89;89.42;100223.03;4993983;28;20528;-66
2023/08/07 03:49:31;;;;;;;0.80;0.80;;;;;;;17.81;92.39;100223.91;4976082;28;20058;-66
2023/08/07 03:51:59;;;;;;;2.80;0.73;;;;;;;17.77;91.03;100222.97;4976185;28;20053;-66
2023/08/07 03:54:27;;;;;;;1.05;0.70;;;;;;;17.75;88.47;100230.81;4998006;28;20382;-66
2023/08/07 03:56:55;;;;;;;2.92;0.93;;;;;;;17.67;86.20;100227.78;5013552;28;20703;-66
2023/08/07 03:59:23;;;;;;;1.70;0.75;;;;;;;17.77;86.10;100236.81;5013013;28;20405;-68
2023/08/07 04:01:51;;;;;;;1.05;0.82;;;;;;;17.80;85.79;100223.09;5011469;28;20045;-67
2023/08/07 04:04:19;;;;;;;1.38;0.80;;;;;;;17.91;84.35;100233.75;5013338;28;20095;-67
2023/08/07 04:06:47;;;;;;;0.70;0.65;;;;;;;17.94;84.67;100239.44;5012977;28;20050;-67
2023/08/07 04:09:16;;;;;;;2.13;1.83;;;;;;;17.91;85.34;100229.06;5011341;28;20387;-67
2023/08/07 04:11:45;;;;;;;1.27;0.82;;;;;;;17.84;85.84;100232.34;5010834;28;20374;-67
2023/08/07 04:14:12;;;;;;;1.10;0.70;;;;;;;17.96;88.91;100236.34;5011305;28;20405;-67
2023/08/07 04:16:41;;;;;;;1.35;0.70;;;;;;;17.90;88.51;100241.28;5012138;28;20405;-67
2023/08/07 04:19:09;;;;;;;1.23;0.90;;;;;;;17.98;89.46;100243.16;5012744;28;20061;-67
2023/08/07 04:21:37;;;;;;;1.45;0.80;;;;;;;17.99;89.76;100239.22;5011745;28;20060;-67
2023/08/07 04:24:10;;;;;;;2.05;1.08;;;;;;;17.92;91.19;100238.16;5010845;28;20045;-67
2023/08/07 04:26:38;;;;;;;1.83;0.88;;;;;;;17.98;93.15;100240.38;5013315;28;20057;-67
2023/08/07 04:29:07;;;;;;;3.00;1.13;;;;;;;17.92;94.92;100236.19;5011625;28;20050;-66
2023/08/07 04:31:35;;;;;;;2.70;1.40;;;;;;;18.00;94.92;100240.06;5028318;28;20050;-67
2023/08/07 04:34:03;;;;;;;5.45;1.35;;;;;;;18.02;94.81;100236.94;5013183;28;20046;-67
2023/08/07 04:36:31;;;;;;;1.25;1.10;;;;;;;17.92;93.61;100241.75;5012769;28;20057;-67
2023/08/07 04:38:59;;;;;;;1.27;0.88;;;;;;;17.95;94.58;100235.50;5012419;28;20076;-67
2023/08/07 04:41:27;;;;;;;1.50;1.00;;;;;;;17.97;95.01;100237.94;5012264;28;20413;-67
2023/08/07 04:43:55;;;;;;;2.03;1.10;;;;;;;17.98;91.99;100237.63;5011636;28;20485;-66
2023/08/07 04:46:23;;;;;;;1.35;0.77;;;;;;;18.04;89.24;100248.47;5012196;28;20125;-67
2023/08/07 04:48:51;;;;;;;1.60;1.15;;;;;;;17.83;89.54;100249.28;5012345;28;20091;-66
2023/08/07 04:51:18;;;;;;;3.25;1.10;;;;;;;17.80;90.98;100247.22;5011795;28;20046;-67
2023/08/07 04:53:50;;;;;;;4.43;1.10;;;;;;;17.72;91.24;100259.97;5011698;28;20521;-67
2023/08/07 04:56:18;;;;;;;1.92;1.35;;;;;;;17.79;91.34;100264.97;5012746;28;20061;-67
2023/08/07 04:58:46;;;;;;;2.22;1.30;;;;;;;17.82;91.35;100253.22;5012139;28;20058;-66
2023/08/07 05:01:14;;;;;;;4.05;1.55;;;;;;;17.91;91.43;100262.28;5011848;28;20054;-67
2023/08/07 05:03:42;;;;;;;2.38;1.20;;;;;;;17.93;89.63;100259.97;5011151;28;20050;-67
2023/08/07 05:06:10;;;;;;;2.00;1.00;;;;;;;18.14;89.89;100261.94;4994069;28;20050;-67
2023/08/07 05:08:38;;;;;;;1.58;1.08;;;;;;;18.24;90.63;100258.75;5011791;28;20046;-67
2023/08/07 05:11:06;;;;;;;2.25;0.98;;;;;;;18.26;89.68;100273.09;5012522;28;20065;-67
2023/08/07 05:13:34;;;;;;;1.65;0.90;;;;;;;18.39;87.15;100267.59;5011481;28;20050;-67
2023/08/07 05:16:02;;;;;;;3.13;1.25;;;;;;;18.37;88.23;100267.09;5012400;28;20046;-67
2023/08/07 05:18:31;;;;;;;1.65;0.70;;;;;;;18.27;89.65;100276.63;5011653;28;20050;-67
2023/08/07 05:20:59;;;;;;;1.10;1.00;;;;;;;18.35;87.34;100275.78;5011778;28;20058;-67
2023/08/07 05:23:26;;;;;;;1.38;0.80;;;;;;;18.43;82.04;100276.03;5011896;28;20053;-66
2023/08/07 05:25:54;;;;;;;1.85;0.98;;;;;;;18.32;84.48;100281.19;5012016;28;20874;-67
2023/08/07 05:28:22;;;;;;;3.85;1.00;;;;;;;18.37;83.69;100279.00;5011293;28;20080;-67
2023/08/07 05:30:50;;;;;;;1.55;0.90;;;;;;;18.27;86.06;100273.88;5011929;28;20049;-66
2023/08/07 05:33:18;;;;;;;3.13;1.50;;;;;;;18.36;84.12;100276.56;5011117;28;20045;-66
2023/08/07 05:35:46;;;;;;;5.25;2.22;;;;;;;18.59;82.61;100281.72;5012173;28;20049;-66
2023/08/07 05:38:14;;;;;;;2.58;1.27;;;;;;;18.71;84.44;100287.28;5010843;28;20057;-66
2023/08/07 05:40:42;;;;;;;5.13;1.25;;;;;;;18.91;79.49;100291.16;5011854;28;20058;-67
2023/08/07 05:43:12;;;;;;;1.45;0.80;;;;;;;19.00;80.39;100290.22;5011393;28;20046;-67
2023/08/07 05:45:40;;;;;;;1.85;1.10;;;;;;;19.02;81.63;100294.28;5011516;28;20112;-66
2023/08/07 05:48:09;;;;;;;1.20;1.08;;;;;;;18.90;82.51;100294.25;5012068;28;20053;-67
2023/08/07 05:50:37;;;;;;;2.78;1.52;;;;;;;18.88;82.04;100296.56;5011031;28;20138;-66
2023/08/07 05:53:05;;;;;;;1.98;1.10;;;;;;;19.06;82.42;100300.78;5011843;28;20428;-67
2023/08/07 05:55:34;;;;;;;1.27;0.95;;;;;;;19.29;81.16;100305.91;5014946;28;20058;-67
2023/08/07 05:58:02;;;;;;;4.57;1.40;;;;;;;19.36;77.47;100307.28;5015919;28;20042;-67
2023/08/07 06:00:30;;;;;;;1.00;0.90;;;;;;;19.74;78.68;100308.84;5015337;28;20053;-67
2023/08/07 06:02:58;;;;;;;3.40;1.15;;;;;;;19.89;75.35;100318.44;5014689;28;20058;-67
2023/08/07 06:05:26;;;;;;;1.35;1.05;;;;;;;20.06;74.87;100320.19;5014746;28;20116;-67
2023/08/07 06:07:54;;;;;;;1.20;1.10;;;;;;;20.13;74.64;100323.16;5015267;28;20404;-67
2023/08/07 06:10:22;;;;;;;2.03;1.30;;;;;;;20.23;76.21;100321.06;5014226;28;20508;-67
2023/08/07 06:12:50;;;;;;;3.28;1.40;;;;;;;20.31;73.57;100320.09;5014679;28;20050;-67
2023/08/07 06:15:18;;;;;;;3.63;1.48;;;;;;;20.73;69.33;100315.28;5014759;28;20057;-67
2023/08/07 06:17:46;;;;;;;1.30;0.93;;;;;;;20.59;68.95;100319.28;5015490;28;20042;-67
2023/08/07 06:20:15;;;;;;;4.38;1.55;;;;;;;20.78;71.98;100309.44;5014250;28;20473;-67
2023/08/07 06:22:44;;;;;;;2.25;1.40;;;;;;;20.37;75.22;100312.31;5014267;28;20064;-67
2023/08/07 06:25:11;;;;;;;4.13;1.58;;;;;;;20.33;74.20;100311.41;5014474;28;20053;-67
2023/08/07 06:27:39;;;;;;;4.28;1.95;;;;;;;20.08;75.81;100315.06;5014935;28;20050;-67
2023/08/07 06:30:08;;;;;;;3.22;1.50;;;;;;;19.94;75.41;100317.41;5014300;28;20053;-67
2023/08/07 06:32:36;;;;;;;3.67;1.40;;;;;;;19.72;75.96;100327.84;5014306;28;20057;-66
2023/08/07 06:35:05;;;;;;;3.05;1.70;;;;;;;19.98;76.82;100323.88;5014570;28;20053;-66
2023/08/07 06:37:32;;;;;;;3.83;1.08;;;;;;;19.84;73.06;100325.03;5014203;28;20072;-67
2023/08/07 06:40:01;;;;;;;1.30;0.80;;;;;;;19.76;71.10;100333.50;5014953;28;20042;-66
2023/08/07 06:42:29;;;;;;;1.38;1.00;;;;;;;19.95;71.57;100330.91;5013575;28;20050;-66
2023/08/07 06:44:57;;;;;;;3.30;1.17;;;;;;;19.52;69.80;100322.09;5012608;28;20393;-65
2023/08/07 06:47:25;;;;;;;2.85;1.33;;;;;;;20.08;71.35;100330.94;5014542;28;20072;-66
2023/08/07 06:49:53;;;;;;;2.53;1.80;;;;;;;20.49;70.96;100331.69;5013670;28;20049;-66
2023/08/07 06:52:21;;;;;;;2.65;1.77;;;;;;;20.56;70.94;100335.88;5013325;28;20054;-66
2023/08/07 06:54:49;;;;;;;3.53;1.77;;;;;;;20.47;67.64;100334.03;5012692;28;20052;-67
2023/08/07 06:57:17;;;;;;;3.17;1.50;;;;;;;20.93;69.88;100335.69;5014203;28;20042;-66
2023/08/07 06:59:45;;;;;;;2.92;1.13;;;;;;;21.18;67.35;100343.88;5013145;28;20065;-66
2023/08/07 07:02:13;;;;;;;5.63;2.00;;;;;;;21.27;67.38;100347.31;5013446;28;20057;-66
2023/08/07 07:04:41;;;;;;;3.10;1.48;;;;;;;21.14;67.93;100343.78;5012938;28;20053;-66
2023/08/07 07:07:09;;;;;;;6.07;1.90;;;;;;;20.90;70.66;100351.13;5012148;28;20049;-66
2023/08/07 07:09:36;;;;;;;4.97;1.90;;;;;;;21.01;70.02;100350.59;5012637;28;20572;-66
2023/08/07 07:12:05;;;;;;;3.00;1.55;;;;;;;21.20;69.15;100350.69;5013163;28;20481;-66
2023/08/07 07:14:36;;;;;;;4.93;2.25;;;;;;;21.60;66.67;100356.41;5013614;28;20066;-66
2023/08/07 07:17:04;;;;;;;5.68;1.95;;;;;;;22.26;64.43;100347.56;5013047;28;20064;-66
2023/08/07 07:19:32;;;;;;;2.53;1.95;;;;;;;22.84;65.32;100359.91;5012449;28;20129;-66
2023/08/07 07:22:00;;;;;;;2.78;1.92;;;;;;;22.73;60.30;100362.47;5013667;28;20046;-66
2023/08/07 07:24:28;;;;;;;2.42;1.33;;;;;;;22.92;62.42;100364.41;5013724;28;20048;-66
2023/08/07 07:26:55;;;;;;;3.45;1.45;;;;;;;22.81;59.50;100363.41;5013053;28;20050;-67
2023/08/07 07:29:23;;;;;;;2.17;1.30;;;;;;;23.09;55.26;100367.91;5013565;28;20042;-67
2023/08/07 07:31:51;;;;;;;3.42;1.20;;;;;;;23.67;54.86;100359.69;5013005;28;20057;-66
2023/08/07 07:34:19;;;;;;;2.28;0.93;;;;;;;23.96;50.86;100362.91;5013572;28;20048;-67
2023/08/07 07:36:48;;;;;;;0.93;0.80;;;;;;;23.85;47.77;100359.97;5013328;28;20049;-67
2023/08/07 07:39:15;;;;;;;2.13;0.80;;;;;;;23.83;44.07;100371.53;5013120;28;20407;-67
2023/08/07 07:41:44;;;;;;;1.67;0.88;;;;;;;24.09;47.66;100364.31;5012958;28;20077;-67
2023/08/07 07:44:13;;;;;;;1.52;1.05;;;;;;;24.05;48.32;100366.22;5013333;28;20046;-67
2023/08/07 07:46:40;;;;;;;5.60;0.90;;;;;;;23.50;48.07;100375.78;5013342;28;20045;-66
2023/08/07 07:49:08;;;;;;;4.30;0.82;;;;;;;23.05;48.36;100383.78;5013321;28;20050;-66
2023/08/07 07:51:37;;;;;;;2.45;0.77;;;;;;;23.13;49.17;100377.16;5013184;28;20041;-66
2023/08/07 07:54:05;;;;;;;1.90;0.60;;;;;;;22.90;50.09;100377.13;5012330;28;20130;-67
2023/08/07 07:56:36;;;;;;;3.08;0.73;;;;;;;22.89;49.68;100392.25;5012449;28;20049;-66
2023/08/07 07:59:04;;;;;;;0.85;0.50;;;;;;;22.85;47.30;100383.00;5012400;28;20045;-67
2023/08/07 08:01:35;;;;;;;0.90;0.50;;;;;;;22.70;46.90;100385.53;5012549;28;20042;-66
2023/08/07 08:04:04;;;;;;;0.40;0.40;;;;;;;22.75;44.04;100390.00;5012517;28;20057;-67
2023/08/07 08:06:32;;;;;;;1.58;0.75;;;;;;;22.78;46.68;100383.69;5012246;28;20050;-66
2023/08/07 08:09:03;;;;;;;2.08;0.55;;;;;;;22.63;44.05;100379.81;5012388;28;20061;-67
2023/08/07 08:11:32;;;;;;;1.27;0.47;;;;;;;22.56;46.09;100386.03;5012855;28;20481;-67
2023/08/07 08:14:00;;;;;;;1.38;0.60;;;;;;;22.55;45.87;100388.00;5012202;28;20591;-66
2023/08/07 08:16:27;;;;;;;0.95;0.60;;;;;;;22.68;45.48;100390.66;5012241;28;20061;-67
2023/08/07 08:18:55;;;;;;;1.35;0.80;;;;;;;22.81;45.20;100383.75;5012161;28;20520;-66
2023/08/07 08:21:23;;;;;;;1.38;0.77;;;;;;;23.20;45.75;100391.25;5011350;28;20046;-66
2023/08/07 08:23:51;;;;;;;0.75;0.75;;;;;;;23.54;46.76;100387.03;5012236;28;20058;-67
2023/08/07 08:26:19;;;;;;;2.85;0.63;;;;;;;24.10;42.53;100391.09;5012071;28;20054;-67
2023/08/07 08:28:47;;;;;;;2.30;0.73;;;;;;;24.71;43.06;100390.25;5012127;28;20053;-67
2023/08/07 08:31:15;;;;;;;0.73;0.55;;;;;;;24.86;44.40;100385.66;5012522;28;20038;-67
2023/08/07 08:33:43;;;;;;;0.70;0.50;;;;;;;25.44;43.29;100391.00;5011528;28;20401;-67
2023/08/07 08:36:11;;;;;;;2.33;0.60;;;;;;;25.45;44.32;100401.81;5011843;28;20050;-67
2023/08/07 08:38:39;;;;;;;0.75;0.50;;;;;;;25.68;36.42;100406.44;5011265;28;20042;-67
2023/08/07 08:41:09;;;;;;;1.70;0.40;;;;;;;25.77;36.90;100394.88;5012025;28;20057;-67
2023/08/07 08:43:38;;;;;;;1.27;0.50;;;;;;;25.78;31.71;100399.28;5011426;28;20081;-67
2023/08/07 08:46:07;;;;;;;0.40;0.30;;;;;;;25.79;35.79;100406.50;5011858;28;20509;-67
2023/08/07 08:48:40;;;;;;;0.30;0.30;;;;;;;26.06;29.92;100408.28;5011430;28;20069;-67
2023/08/07 08:51:09;;;;;;;1.70;0.70;;;;;;;25.96;31.71;100405.00;5011708;28;20469;-67
2023/08/07 08:53:38;;;;;;;0.30;0.30;;;;;;;26.35;33.96;100412.09;5011219;28;20042;-67
2023/08/07 08:56:06;;;;;;;0.93;0.50;;;;;;;26.53;33.61;100406.53;5011170;28;20057;-67
2023/08/07 08:58:34;;;;;;;0.50;0.30;;;;;;;26.51;32.54;100405.31;5011421;28;20068;-67
2023/08/07 09:01:03;;;;;;;0.98;0.35;;;;;;;26.42;31.54;100414.09;5011736;28;20053;-67
2023/08/07 09:03:31;;;;;;;0.55;0.40;;;;;;;27.03;32.56;100409.94;5010883;28;20060;-67
2023/08/07 09:05:59;;;;;;;0.50;0.32;;;;;;;27.17;32.37;100412.75;5011295;28;20042;-67
2023/08/07 09:08:29;;;;;;;0.55;0.35;;;;;;;26.48;32.08;100406.91;5011761;28;20069;-67
2023/08/07 09:10:57;;;;;;;1.17;0.50;;;;;;;26.74;34.23;100412.63;5010947;28;20057;-67
2023/08/07 09:13:28;;;;;;;0.22;0.22;;;;;;;27.20;33.04;100416.78;5011450;28;20061;-67
2023/08/07 09:16:00;;;;;;;0.63;0.30;;;;;;;27.22;34.60;100415.16;5011052;28;20050;-67
2023/08/07 09:18:28;;;;;;;0.40;0.30;;;;;;;27.45;35.36;100414.00;5011475;28;20053;-67
2023/08/07 09:20:57;;;;;;;1.23;0.40;;;;;;;27.47;35.22;100417.19;5011277;28;20058;-67
2023/08/07 09:23:25;;;;;;;1.05;0.40;;;;;;;27.69;31.64;100414.41;5011285;28;20056;-67
2023/08/07 09:26:00;;;;;;;0.30;0.30;;;;;;;28.13;31.61;100414.34;5011282;28;20080;-67
2023/08/07 09:28:30;;;;;;;1.75;0.38;;;;;;;28.39;34.41;100413.06;5010815;28;20382;-67
2023/08/07 09:30:59;;;;;;;2.67;0.68;;;;;;;28.23;32.18;100412.72;5015166;28;20050;-67
2023/08/07 09:33:30;;;;;;;0.77;0.30;;;;;;;28.00;30.25;100416.78;5015804;28;20041;-67
2023/08/07 09:36:01;;;;;;;0.38;0.38;;;;;;;28.35;33.32;100417.91;5015424;28;20050;-67
2023/08/07 09:38:32;;;;;;;0.85;0.40;;;;;;;27.89;33.20;100422.41;5015138;28;20489;-67
2023/08/07 09:41:03;;;;;;;0.82;0.40;;;;;;;28.40;33.27;100419.53;5015229;28;20052;-68
2023/08/07 09:43:35;;;;;;;0.45;0.40;;;;;;;28.58;31.17;100430.69;5014773;28;20064;-67
2023/08/07 09:46:07;;;;;;;0.60;0.45;;;;;;;28.87;31.45;100430.59;5015261;28;20057;-67
2023/08/07 09:48:40;;;;;;;0.88;0.43;;;;;;;28.87;33.93;100427.75;5014869;28;20046;-67
2023/08/07 09:51:09;;;;;;;0.32;0.32;;;;;;;29.32;35.06;100423.47;5014214;28;20060;-67
2023/08/07 09:53:37;;;;;;;1.63;0.45;;;;;;;29.16;30.74;100421.97;5014863;28;20057;-67
2023/08/07 09:56:06;;;;;;;1.23;0.40;;;;;;;29.38;34.50;100413.34;5015648;28;20397;-67
2023/08/07 09:58:34;;;;;;;0.63;0.17;;;;;;;29.27;32.58;100423.91;5015416;28;20050;-67
2023/08/07 10:01:05;;;;;;;1.45;0.55;;;;;;;29.13;32.47;100425.63;5014992;28;20053;-67
2023/08/07 10:03:33;;;;;;;1.50;0.30;;;;;;;29.08;31.97;100421.19;5014816;28;20053;-67
2023/08/07 10:06:01;;;;;;;0.45;0.40;;;;;;;29.00;31.95;100418.84;5014643;28;20057;-67
2023/08/07 10:08:30;;;;;;;0.40;0.40;;;;;;;28.97;30.21;100423.28;5014729;28;20049;-67
2023/08/07 10:10:58;;;;;;;0.75;0.43;;;;;;;28.94;30.00;100424.91;5014216;28;20076;-67
2023/08/07 10:13:27;;;;;;;2.08;0.43;;;;;;;29.38;33.78;100414.13;5014612;28;20371;-67
2023/08/07 10:16:07;;;;;;;0.68;0.50;;;;;;;29.12;30.77;100415.53;5014854;28;20050;-67
2023/08/07 10:18:36;;;;;;;0.60;0.40;;;;;;;29.62;30.53;100419.22;5015074;28;20038;-67
2023/08/07 10:21:06;;;;;;;0.30;0.30;;;;;;;29.75;33.83;100411.03;5013841;28;20050;-67
2023/08/07 10:23:36;;;;;;;0.63;0.47;;;;;;;29.72;30.12;100423.94;5013948;28;20528;-68
2023/08/07 10:26:11;;;;;;;0.70;0.32;;;;;;;29.99;32.40;100416.84;5014938;28;20049;-67
2023/08/07 10:28:41;;;;;;;3.53;0.70;;;;;;;29.04;28.96;100406.34;5013633;28;20057;-67
2023/08/07 10:31:10;;;;;;;0.60;0.35;;;;;;;29.36;30.02;100416.59;5014689;28;20046;-67
2023/08/07 10:33:41;;;;;;;2.45;0.50;;;;;;;29.24;28.12;100409.41;5014037;28;20065;-67
2023/08/07 10:36:10;;;;;;;0.32;0.32;;;;;;;29.45;30.87;100407.66;5014390;28;20046;-66
2023/08/07 10:38:38;;;;;;;0.40;0.30;;;;;;;29.94;30.42;100412.47;5013997;28;20057;-67
2023/08/07 10:41:12;;;;;;;0.40;0.40;;;;;;;29.30;24.60;100414.63;5013276;28;20394;-67
2023/08/07 10:43:44;;;;;;;0.35;0.20;;;;;;;29.54;30.58;100412.03;5013470;28;20054;-67
2023/08/07 10:46:15;;;;;;;0.40;0.40;;;;;;;29.55;30.80;100413.63;5014140;28;20049;-66
2023/08/07 10:48:53;;;;;;;0.52;0.32;;;;;;;29.67;25.22;100426.44;5014101;28;20413;-67
2023/08/07 10:51:27;;;;;;;0.98;0.30;;;;;;;29.65;25.82;100418.38;5013662;28;20524;-67
2023/08/07 10:53:56;;;;;;;2.10;0.40;;;;;;;29.09;26.42;100419.19;5013489;28;20057;-67
2023/08/07 10:56:31;;;;;;;1.02;0.50;;;;;;;29.68;27.33;100411.91;5014499;28;20420;-67
2023/08/07 10:59:08;;;;;;;0.90;0.45;;;;;;;29.75;27.39;100409.03;5013590;28;20050;-67
2023/08/07 11:01:39;;;;;;;1.17;0.32;;;;;;;29.40;32.07;100412.91;5013846;28;20053;-67
2023/08/07 11:04:16;;;;;;;0.45;0.17;;;;;;;29.58;28.12;100402.34;5013472;28;20054;-67
2023/08/07 11:06:47;;;;;;;1.17;0.30;;;;;;;30.08;28.45;100410.72;5013668;28;20050;-67
2023/08/07 11:09:15;;;;;;;1.17;0.20;;;;;;;29.61;24.39;100403.50;5013460;28;20054;-67
2023/08/07 11:11:47;;;;;;;0.10;0.10;;;;;;;29.97;24.01;100406.00;5013366;28;20062;-66
2023/08/07 11:14:17;;;;;;;0.20;0.20;;;;;;;30.01;28.41;100400.31;5014077;28;20046;-66
2023/08/07 11:16:47;;;;;;;0.75;0.40;;;;;;;30.14;23.35;100403.41;5013140;28;20508;-67
2023/08/07 11:19:16;;;;;;;3.10;0.25;;;;;;;30.19;24.70;100400.13;5012993;28;20057;-66
2023/08/07 11:21:44;;;;;;;0.13;0.13;;;;;;;30.20;27.47;100392.47;5012859;28;20057;-67
2023/08/07 11:24:13;;;;;;;0.20;0.20;;;;;;;30.17;28.24;100400.53;5013565;28;20057;-66
2023/08/07 11:26:44;;;;;;;0.32;0.20;;;;;;;30.01;23.81;100401.09;5013304;28;20050;-67
2023/08/07 11:29:18;;;;;;;0.50;0.30;;;;;;;30.13;26.07;100399.81;5013226;28;20378;-67
2023/08/07 11:31:46;;;;;;;0.93;0.30;;;;;;;30.39;24.74;100396.69;5012938;28;20080;-67